Time;durP1;ratioP1;P1;durP2;ratioP2;P2;SDS_P1;SDS_P2;PMS_P1;PMS_P2;Temp;Humidity;BMP_temperature;BMP_pressure;BME280_temperature;BME280_humidity;BME280_pressure;Samples;Min_cycle;Max_cycle;Signal;HPM_P1;HPM_P2
2022/07/13 00:00:14;;;;;;;4.50;1.60;;;20.90;99.90;;;;;;4954478;28;20268;-59
2022/07/13 00:02:40;;;;;;;5.28;1.70;;;20.80;99.90;;;;;;4955030;28;20186;-59
2022/07/13 00:05:06;;;;;;;4.72;1.58;;;20.70;99.90;;;;;;4954945;28;20313;-59
2022/07/13 00:07:36;;;;;;;5.07;1.63;;;20.70;99.90;;;;;;4954655;28;20180;-59
2022/07/13 00:10:03;;;;;;;6.50;1.70;;;20.70;99.90;;;;;;4955090;29;20172;-57
2022/07/13 00:12:29;;;;;;;4.55;1.92;;;20.70;99.90;;;;;;4954194;28;20240;-58
2022/07/13 00:14:54;;;;;;;7.43;1.88;;;20.60;99.90;;;;;;4955076;29;20175;-58
2022/07/13 00:17:20;;;;;;;5.50;1.65;;;20.60;99.90;;;;;;4953739;29;20189;-58
2022/07/13 00:19:46;;;;;;;3.88;1.55;;;20.60;99.90;;;;;;4954723;28;20177;-58
2022/07/13 00:22:12;;;;;;;7.78;2.13;;;20.50;99.90;;;;;;4954857;28;20214;-58
2022/07/13 00:24:38;;;;;;;6.18;1.75;;;20.50;99.90;;;;;;4954017;29;20267;-58
2022/07/13 00:27:03;;;;;;;5.00;1.92;;;20.50;99.90;;;;;;4952004;29;20181;-58
2022/07/13 00:29:29;;;;;;;4.68;1.80;;;20.40;99.90;;;;;;4944136;29;20180;-58
2022/07/13 00:31:55;;;;;;;5.50;2.10;;;20.40;99.90;;;;;;4954555;28;20188;-59
2022/07/13 00:34:21;;;;;;;6.22;1.90;;;20.40;99.90;;;;;;4954159;28;20204;-58
2022/07/13 00:36:47;;;;;;;5.75;2.42;;;20.30;99.90;;;;;;4954841;28;20181;-56
2022/07/13 00:39:13;;;;;;;8.93;2.28;;;20.30;99.90;;;;;;4954422;28;20173;-56
2022/07/13 00:41:56;;;;;;;3.67;1.98;;;20.30;99.90;;;;;;4953956;28;20244;-55
2022/07/13 00:44:22;;;;;;;5.65;2.10;;;20.30;99.90;;;;;;4954196;28;20208;-55
2022/07/13 00:46:54;;;;;;;6.00;2.25;;;20.20;99.90;;;;;;4954528;28;20180;-56
2022/07/13 00:49:22;;;;;;;9.15;2.63;;;20.20;99.90;;;;;;4954642;28;20172;-56
2022/07/13 00:51:48;;;;;;;6.18;2.22;;;20.20;99.90;;;;;;4954660;28;20175;-56
2022/07/13 00:54:15;;;;;;;6.40;2.20;;;20.20;99.90;;;;;;4953298;28;20204;-56
2022/07/13 00:56:41;;;;;;;6.38;2.80;;;20.10;99.90;;;;;;4952855;29;20191;-56
2022/07/13 00:59:07;;;;;;;8.65;2.60;;;20.10;99.90;;;;;;4953788;28;20220;-56
2022/07/13 01:01:33;;;;;;;6.97;2.00;;;20.10;99.90;;;;;;4952904;28;20212;-56
2022/07/13 01:03:59;;;;;;;6.03;1.83;;;20.10;99.90;;;;;;4954402;28;20176;-59
2022/07/13 01:06:25;;;;;;;6.10;1.80;;;20.00;99.90;;;;;;4953975;28;20596;-55
2022/07/13 01:08:51;;;;;;;4.25;1.67;;;20.00;99.90;;;;;;4953837;29;20640;-55
2022/07/13 01:11:17;;;;;;;2.72;1.45;;;19.90;99.90;;;;;;4954039;28;20184;-55
2022/07/13 01:13:45;;;;;;;6.15;1.45;;;19.90;99.90;;;;;;4951744;28;20212;-54
2022/07/13 01:16:11;;;;;;;3.08;1.25;;;19.90;99.90;;;;;;4953793;28;20210;-54
2022/07/13 01:18:40;;;;;;;5.47;1.30;;;19.80;99.90;;;;;;4953775;28;20635;-54
2022/07/13 01:21:06;;;;;;;3.10;1.65;;;19.80;99.90;;;;;;4953511;28;20707;-54
2022/07/13 01:23:33;;;;;;;4.22;1.67;;;19.80;99.90;;;;;;4953369;28;20181;-54
2022/07/13 01:26:01;;;;;;;4.57;1.92;;;19.70;99.90;;;;;;4953535;28;20231;-54
2022/07/13 01:28:26;;;;;;;8.38;2.17;;;19.50;99.90;;;;;;4953481;29;20256;-54
2022/07/13 01:30:52;;;;;;;3.22;1.50;;;19.60;99.90;;;;;;4953122;28;20268;-54
2022/07/13 01:33:18;;;;;;;2.97;1.50;;;19.60;99.90;;;;;;4953523;28;20259;-54
2022/07/13 01:35:44;;;;;;;3.13;1.63;;;19.60;99.90;;;;;;4953484;28;20220;-54
2022/07/13 01:38:10;;;;;;;4.85;1.50;;;19.50;99.90;;;;;;4953729;28;20280;-54
2022/07/13 01:40:36;;;;;;;7.60;1.60;;;19.50;99.90;;;;;;4953598;28;20206;-54
2022/07/13 01:43:02;;;;;;;6.13;1.67;;;19.40;99.90;;;;;;4953157;29;20263;-54
2022/07/13 01:45:28;;;;;;;8.05;1.65;;;19.40;99.90;;;;;;4953221;28;20680;-55
2022/07/13 01:47:55;;;;;;;6.68;1.60;;;19.40;99.90;;;;;;4953021;28;20592;-54
2022/07/13 01:50:23;;;;;;;3.28;1.17;;;19.40;99.90;;;;;;4952772;29;20177;-54
2022/07/13 01:52:50;;;;;;;6.38;1.80;;;19.30;99.90;;;;;;4953596;28;20180;-54
2022/07/13 01:55:16;;;;;;;3.60;1.38;;;19.30;99.90;;;;;;4953474;28;20602;-54
2022/07/13 01:57:43;;;;;;;1.85;1.30;;;19.20;99.90;;;;;;4952632;28;20185;-54
2022/07/13 02:00:19;;;;;;;8.27;1.67;;;19.20;99.90;;;;;;4952681;28;20173;-54
2022/07/13 02:02:46;;;;;;;4.47;1.40;;;19.20;99.90;;;;;;4952504;28;20476;-55
2022/07/13 02:05:13;;;;;;;5.53;1.75;;;19.10;99.90;;;;;;4952853;28;20172;-54
2022/07/13 02:07:39;;;;;;;3.47;1.73;;;19.10;99.90;;;;;;4952726;29;20176;-54
2022/07/13 02:10:07;;;;;;;2.72;1.70;;;19.00;99.90;;;;;;4952958;29;20667;-55
2022/07/13 02:12:33;;;;;;;5.38;1.70;;;19.00;99.90;;;;;;4951951;28;20224;-55
2022/07/13 02:14:59;;;;;;;3.78;1.75;;;18.90;99.90;;;;;;4952099;29;20255;-55
2022/07/13 02:17:25;;;;;;;6.95;1.67;;;18.90;99.90;;;;;;4950655;28;20175;-55
2022/07/13 02:19:52;;;;;;;6.78;1.60;;;18.80;99.90;;;;;;4941685;28;20177;-55
2022/07/13 02:22:18;;;;;;;5.95;1.60;;;18.80;99.90;;;;;;4952903;28;20291;-55
2022/07/13 02:24:43;;;;;;;5.45;1.80;;;18.70;99.90;;;;;;4942401;29;20260;-55
2022/07/13 02:27:09;;;;;;;4.45;1.63;;;18.70;99.90;;;;;;4952592;28;20192;-55
2022/07/13 02:29:35;;;;;;;5.40;1.88;;;18.60;99.90;;;;;;4952556;28;20184;-54
2022/07/13 02:32:01;;;;;;;6.07;1.40;;;18.60;99.90;;;;;;4952791;28;20270;-55
2022/07/13 02:34:27;;;;;;;5.50;1.60;;;18.50;99.90;;;;;;4952782;28;20263;-55
2022/07/13 02:36:56;;;;;;;3.55;1.50;;;18.50;99.90;;;;;;4952412;28;20271;-54
2022/07/13 02:39:22;;;;;;;3.83;1.50;;;18.40;99.90;;;;;;4952829;28;20183;-54
2022/07/13 02:41:49;;;;;;;5.63;1.85;;;18.40;99.90;;;;;;4952797;28;20215;-54
2022/07/13 02:44:15;;;;;;;3.60;1.67;;;18.40;99.90;;;;;;4952823;28;20169;-54
2022/07/13 02:46:41;;;;;;;4.07;1.90;;;18.40;99.90;;;;;;4952301;28;20714;-54
2022/07/13 02:49:07;;;;;;;6.88;1.70;;;18.40;99.90;;;;;;4952706;28;20173;-53
2022/07/13 02:51:33;;;;;;;10.95;1.90;;;18.50;99.90;;;;;;4952534;29;20180;-54
2022/07/13 02:53:59;;;;;;;2.70;1.70;;;18.50;99.90;;;;;;4952773;28;20640;-53
2022/07/13 02:56:24;;;;;;;3.85;2.20;;;18.50;99.90;;;;;;4952120;28;20183;-54
2022/07/13 02:58:50;;;;;;;5.15;1.98;;;18.50;99.90;;;;;;4951942;28;20169;-53
2022/07/13 03:01:16;;;;;;;5.10;2.17;;;18.40;99.90;;;;;;4950904;29;20216;-53
2022/07/13 03:03:42;;;;;;;7.13;2.25;;;18.40;99.90;;;;;;4952112;28;20268;-53
2022/07/13 03:06:08;;;;;;;4.30;2.10;;;18.40;99.90;;;;;;4952191;28;20180;-53
2022/07/13 03:08:34;;;;;;;7.07;2.20;;;18.40;99.90;;;;;;4952803;28;20169;-53
2022/07/13 03:11:00;;;;;;;7.05;2.30;;;18.30;99.90;;;;;;4952885;28;20195;-53
2022/07/13 03:13:25;;;;;;;5.50;1.73;;;18.30;99.90;;;;;;4952250;29;20315;-53
2022/07/13 03:15:51;;;;;;;3.75;2.08;;;18.30;99.90;;;;;;4952470;28;20655;-53
2022/07/13 03:18:17;;;;;;;7.18;2.25;;;18.20;99.90;;;;;;4952552;28;20169;-53
2022/07/13 03:20:43;;;;;;;5.47;1.95;;;18.20;99.90;;;;;;4951818;28;20204;-54
2022/07/13 03:23:09;;;;;;;5.57;2.30;;;18.20;99.90;;;;;;4952300;28;20172;-59
2022/07/13 03:25:34;;;;;;;8.55;2.28;;;18.10;99.90;;;;;;4953640;28;20172;-60
2022/07/13 03:28:00;;;;;;;6.22;2.00;;;18.10;99.90;;;;;;4954727;28;20243;-55
2022/07/13 03:30:26;;;;;;;4.68;2.00;;;18.10;99.90;;;;;;4955285;28;20222;-55
2022/07/13 03:32:52;;;;;;;5.53;2.17;;;18.10;99.90;;;;;;4955330;28;20603;-56
2022/07/13 03:35:33;;;;;;;8.32;1.90;;;18.00;99.90;;;;;;4955373;28;20175;-56
2022/07/13 03:37:59;;;;;;;7.13;1.92;;;18.00;99.90;;;;;;4954999;28;20635;-55
2022/07/13 03:40:25;;;;;;;3.03;1.83;;;18.00;99.90;;;;;;4955215;28;20194;-55
2022/07/13 03:42:51;;;;;;;3.25;1.95;;;18.00;99.90;;;;;;4954829;28;20211;-55
2022/07/13 03:45:17;;;;;;;6.15;2.20;;;18.00;99.90;;;;;;4955107;28;20204;-55
2022/07/13 03:47:43;;;;;;;6.47;2.30;;;18.00;99.90;;;;;;4955034;28;20658;-55
2022/07/13 03:50:08;;;;;;;9.57;2.90;;;18.00;99.90;;;;;;4955629;28;20181;-55
2022/07/13 03:52:34;;;;;;;8.52;2.90;;;17.90;99.90;;;;;;4955412;28;20624;-55
2022/07/13 03:55:00;;;;;;;11.68;2.90;;;17.90;99.90;;;;;;4954995;29;20211;-55
2022/07/13 03:57:26;;;;;;;4.05;2.30;;;17.90;99.90;;;;;;4955201;28;20208;-55
2022/07/13 03:59:52;;;;;;;5.15;2.10;;;17.90;99.90;;;;;;4954637;29;20663;-56
2022/07/13 04:02:18;;;;;;;10.48;2.65;;;17.90;99.90;;;;;;4955113;29;20712;-56
2022/07/13 04:04:44;;;;;;;5.80;2.22;;;17.80;99.90;;;;;;4955315;29;20203;-56
2022/07/13 04:07:09;;;;;;;7.15;1.98;;;17.80;99.90;;;;;;4955374;28;20187;-56
2022/07/13 04:09:35;;;;;;;10.25;2.45;;;17.70;99.90;;;;;;4954885;29;20715;-55
2022/07/13 04:12:01;;;;;;;6.82;2.30;;;17.70;99.90;;;;;;4954684;28;20216;-55
2022/07/13 04:14:27;;;;;;;5.85;2.40;;;17.70;99.90;;;;;;4954698;28;20739;-55
2022/07/13 04:16:52;;;;;;;8.95;2.50;;;17.70;99.90;;;;;;4955046;28;20674;-56
2022/07/13 04:19:18;;;;;;;5.18;2.20;;;17.70;99.90;;;;;;4955034;28;20176;-56
2022/07/13 04:21:44;;;;;;;6.18;2.67;;;17.70;99.90;;;;;;4954893;28;20679;-56
2022/07/13 04:24:10;;;;;;;6.88;2.65;;;17.60;99.90;;;;;;4954666;28;20179;-56
2022/07/13 04:26:36;;;;;;;8.27;2.60;;;17.60;99.90;;;;;;4953171;28;20184;-56
2022/07/13 04:29:01;;;;;;;6.63;2.92;;;17.60;99.90;;;;;;4942811;28;20548;-55
2022/07/13 04:31:27;;;;;;;7.35;2.47;;;17.60;99.90;;;;;;4935737;29;20169;-55
2022/07/13 04:33:53;;;;;;;8.45;2.60;;;17.70;99.90;;;;;;4953711;29;20173;-55
2022/07/13 04:36:19;;;;;;;8.95;2.65;;;17.80;99.90;;;;;;4953353;28;20202;-56
2022/07/13 04:38:45;;;;;;;5.05;2.42;;;17.80;99.90;;;;;;4954739;28;20177;-55
2022/07/13 04:41:11;;;;;;;8.68;2.95;;;17.80;99.90;;;;;;4954401;28;20259;-56
2022/07/13 04:43:37;;;;;;;11.55;2.83;;;17.90;99.90;;;;;;4954632;28;20232;-56
2022/07/13 04:46:03;;;;;;;7.13;2.80;;;18.00;99.90;;;;;;4954598;28;20215;-56
2022/07/13 04:48:29;;;;;;;5.60;2.25;;;18.00;99.90;;;;;;4954290;28;20375;-56
2022/07/13 04:50:55;;;;;;;5.78;2.80;;;18.00;99.90;;;;;;4954060;28;20256;-56
2022/07/13 04:53:21;;;;;;;11.73;2.90;;;18.00;99.90;;;;;;4954191;29;20176;-57
2022/07/13 04:55:47;;;;;;;5.82;2.53;;;18.00;99.90;;;;;;4954449;28;20160;-56
2022/07/13 04:58:13;;;;;;;8.70;2.80;;;18.10;99.90;;;;;;4954391;28;20510;-55
2022/07/13 05:00:39;;;;;;;4.63;2.70;;;18.20;99.90;;;;;;4954083;28;20308;-55
2022/07/13 05:03:05;;;;;;;8.38;3.08;;;18.20;99.90;;;;;;4954472;28;20180;-55
2022/07/13 05:05:31;;;;;;;5.43;2.63;;;18.30;99.90;;;;;;4953616;28;20200;-55
2022/07/13 05:08:01;;;;;;;7.38;2.50;;;18.30;99.90;;;;;;4954128;28;20674;-55
2022/07/13 05:10:28;;;;;;;5.85;2.45;;;18.40;99.90;;;;;;4952665;29;20636;-54
2022/07/13 05:12:53;;;;;;;5.40;2.67;;;18.40;99.90;;;;;;4953619;28;20267;-55
2022/07/13 05:15:19;;;;;;;8.73;2.50;;;18.40;99.90;;;;;;4954160;28;20172;-56
2022/07/13 05:17:45;;;;;;;6.25;2.83;;;18.40;99.90;;;;;;4954024;28;20219;-55
2022/07/13 05:20:12;;;;;;;8.95;3.08;;;18.50;99.90;;;;;;4953762;28;20177;-56
2022/07/13 05:22:38;;;;;;;8.55;3.63;;;18.50;99.90;;;;;;4953282;29;20208;-55
2022/07/13 05:25:04;;;;;;;5.82;2.92;;;18.50;99.90;;;;;;4953832;29;20181;-55
2022/07/13 05:27:30;;;;;;;8.10;3.30;;;18.50;99.90;;;;;;4953120;28;20558;-55
2022/07/13 05:29:56;;;;;;;7.80;3.20;;;18.60;99.90;;;;;;4952637;28;20181;-57
2022/07/13 05:32:21;;;;;;;12.18;3.42;;;18.60;99.90;;;;;;4953675;28;20633;-53
2022/07/13 05:34:47;;;;;;;6.85;2.63;;;18.60;99.90;;;;;;4953585;29;20168;-53
2022/07/13 05:37:14;;;;;;;6.18;2.60;;;18.60;99.90;;;;;;4953686;28;20165;-54
2022/07/13 05:39:44;;;;;;;6.20;2.70;;;17.10;99.90;;;;;;4953624;28;20337;-54
2022/07/13 05:42:11;;;;;;;8.68;2.95;;;18.60;99.90;;;;;;4953255;28;20288;-52
2022/07/13 05:44:37;;;;;;;8.65;3.22;;;18.70;99.90;;;;;;4953764;28;20176;-52
2022/07/13 05:47:03;;;;;;;6.93;3.03;;;18.70;99.90;;;;;;4952696;28;20671;-54
2022/07/13 05:49:29;;;;;;;8.23;2.85;;;18.80;99.90;;;;;;4953268;28;20168;-57
2022/07/13 05:51:55;;;;;;;8.60;2.97;;;18.80;99.90;;;;;;4953449;28;20176;-60
2022/07/13 05:54:21;;;;;;;5.18;2.55;;;18.90;99.90;;;;;;4953163;28;20169;-58
2022/07/13 05:56:47;;;;;;;6.10;2.60;;;19.00;99.90;;;;;;4951721;29;20615;-58
2022/07/13 05:59:23;;;;;;;3.58;2.30;;;19.10;99.90;;;;;;4953273;28;20268;-57
2022/07/13 06:01:49;;;;;;;8.82;2.35;;;19.00;99.90;;;;;;4952261;29;20294;-57
2022/07/13 06:04:16;;;;;;;13.18;2.58;;;19.10;99.90;;;;;;4952659;28;20283;-57
2022/07/13 06:06:56;;;;;;;15.25;3.10;;;19.20;99.90;;;;;;4953285;28;20176;-57
2022/07/13 06:09:22;;;;;;;6.55;2.38;;;19.10;99.90;;;;;;4952710;29;20647;-57
2022/07/13 06:11:48;;;;;;;6.07;2.35;;;19.10;99.90;;;;;;4944757;28;20185;-57
2022/07/13 06:14:14;;;;;;;5.05;2.28;;;19.20;99.90;;;;;;4947816;29;20631;-57
2022/07/13 06:16:40;;;;;;;6.70;2.22;;;19.20;99.90;;;;;;4952490;28;20187;-57
2022/07/13 06:19:06;;;;;;;7.72;2.00;;;19.20;99.90;;;;;;4952835;28;20674;-57
2022/07/13 06:21:32;;;;;;;4.75;2.22;;;19.20;99.90;;;;;;4952777;29;20215;-57
2022/07/13 06:23:58;;;;;;;5.38;2.20;;;19.20;99.90;;;;;;4952986;28;20183;-57
2022/07/13 06:26:24;;;;;;;5.97;2.20;;;19.30;99.90;;;;;;4951733;28;20255;-57
2022/07/13 06:28:50;;;;;;;6.85;2.20;;;19.30;99.90;;;;;;4952036;28;20413;-57
2022/07/13 06:31:16;;;;;;;10.57;1.98;;;19.40;99.90;;;;;;4951411;28;20191;-57
2022/07/13 06:33:41;;;;;;;7.07;2.20;;;19.60;99.90;;;;;;4951961;29;20551;-57
2022/07/13 06:36:08;;;;;;;6.28;2.08;;;19.80;99.90;;;;;;4951917;28;20658;-60
2022/07/13 06:38:34;;;;;;;5.07;2.00;;;20.10;99.90;;;;;;4950693;29;20173;-60
2022/07/13 06:41:00;;;;;;;5.45;2.15;;;20.20;99.90;;;;;;4951865;28;20235;-61
2022/07/13 06:43:26;;;;;;;8.75;2.70;;;20.30;99.90;;;;;;4952489;28;20648;-61
2022/07/13 06:45:52;;;;;;;7.13;2.20;;;20.30;99.90;;;;;;4952002;28;20932;-60
2022/07/13 06:48:18;;;;;;;5.93;2.45;;;20.50;99.90;;;;;;4951618;28;20176;-60
2022/07/13 06:50:44;;;;;;;5.72;2.38;;;20.60;99.90;;;;;;4952339;28;20187;-60
2022/07/13 06:53:10;;;;;;;8.43;2.40;;;20.80;99.90;;;;;;4951717;29;20195;-60
2022/07/13 06:55:36;;;;;;;6.93;2.38;;;20.80;99.90;;;;;;4951695;29;20180;-60
2022/07/13 06:58:02;;;;;;;7.82;2.30;;;20.80;99.90;;;;;;4950328;29;20236;-60
2022/07/13 07:00:28;;;;;;;7.10;2.17;;;21.00;99.90;;;;;;4954587;28;20176;-66
2022/07/13 07:02:54;;;;;;;5.60;2.10;;;21.00;99.90;;;;;;4956297;29;20208;-65
2022/07/13 07:05:20;;;;;;;6.03;2.17;;;21.00;99.90;;;;;;4956597;29;20208;-66
2022/07/13 07:07:46;;;;;;;7.72;2.05;;;21.10;99.90;;;;;;4956357;28;20632;-67
2022/07/13 07:10:12;;;;;;;3.47;2.47;;;21.00;99.90;;;;;;4956037;28;20176;-65
2022/07/13 07:12:38;;;;;;;6.13;2.28;;;21.00;99.90;;;;;;4956263;28;20235;-64
2022/07/13 07:15:05;;;;;;;5.47;2.40;;;21.00;99.90;;;;;;4958498;28;20176;-65
2022/07/13 07:17:31;;;;;;;7.18;2.13;;;21.00;99.90;;;;;;4954989;29;20227;-66
2022/07/13 07:20:03;;;;;;;5.90;2.17;;;21.20;99.90;;;;;;4956408;28;20189;-64
2022/07/13 07:22:29;;;;;;;5.63;1.85;;;21.30;99.90;;;;;;4954314;29;20713;-64
2022/07/13 07:24:56;;;;;;;7.03;2.22;;;21.40;99.90;;;;;;4955700;28;20659;-64
2022/07/13 07:27:23;;;;;;;5.40;2.28;;;21.40;99.90;;;;;;4955131;28;20208;-65
2022/07/13 07:29:48;;;;;;;5.63;2.00;;;21.80;99.90;;;;;;4955708;29;20216;-65
2022/07/13 07:32:14;;;;;;;11.02;2.10;;;21.80;99.90;;;;;;4955687;29;20204;-66
2022/07/13 07:34:40;;;;;;;5.20;1.98;;;22.00;99.90;;;;;;4954757;28;20244;-65
2022/07/13 07:37:06;;;;;;;6.53;2.47;;;22.00;99.90;;;;;;4955461;28;20176;-63
2022/07/13 07:39:31;;;;;;;4.38;2.03;;;22.10;99.90;;;;;;4955592;29;20173;-65
2022/07/13 07:41:57;;;;;;;5.55;2.13;;;22.20;99.90;;;;;;4955413;29;20219;-66
2022/07/13 07:44:23;;;;;;;4.97;2.33;;;22.20;99.90;;;;;;4955264;28;20180;-64
2022/07/13 07:46:49;;;;;;;3.53;2.20;;;22.20;99.90;;;;;;4959220;28;20662;-64
2022/07/13 07:49:15;;;;;;;5.88;2.28;;;22.30;99.90;;;;;;4955493;28;20264;-65
2022/07/13 07:51:41;;;;;;;7.47;2.15;;;22.30;99.90;;;;;;4955327;28;20189;-64
2022/07/13 07:54:07;;;;;;;4.68;2.25;;;22.60;99.90;;;;;;4954854;28;20176;-65
2022/07/13 07:56:34;;;;;;;6.28;2.15;;;22.60;99.90;;;;;;4952696;28;20188;-65
2022/07/13 07:59:00;;;;;;;3.70;2.25;;;22.80;99.90;;;;;;4954563;28;20596;-64
2022/07/13 08:01:27;;;;;;;5.72;2.28;;;22.40;99.90;;;;;;4954693;28;20204;-63
2022/07/13 08:03:54;;;;;;;6.68;2.50;;;22.60;99.90;;;;;;4953867;29;20195;-60
2022/07/13 08:06:20;;;;;;;3.72;2.45;;;22.60;99.90;;;;;;4955004;28;20180;-62
2022/07/13 08:08:46;;;;;;;4.25;2.50;;;22.60;99.90;;;;;;4955260;28;20176;-63
2022/07/13 08:11:16;;;;;;;5.03;2.20;;;22.70;99.90;;;;;;4953289;28;20494;-64
2022/07/13 08:13:42;;;;;;;5.05;2.05;;;22.90;99.90;;;;;;4954838;28;20278;-66
2022/07/13 08:16:08;;;;;;;5.70;2.22;;;23.00;99.90;;;;;;4953536;28;20231;-57
2022/07/13 08:18:34;;;;;;;8.32;2.10;;;23.10;99.90;;;;;;4954329;28;20643;-61
2022/07/13 08:21:00;;;;;;;7.45;2.35;;;23.00;99.90;;;;;;4954407;28;20208;-60
2022/07/13 08:26:11;;;;;;;6.45;2.10;;;23.30;99.90;;;;;;4954002;28;20320;-60
2022/07/13 08:28:37;;;;;;;7.95;1.98;;;23.60;99.90;;;;;;4954786;28;20256;-62
2022/07/13 08:31:02;;;;;;;6.40;2.30;;;23.50;99.90;;;;;;4953459;28;20180;-61
2022/07/13 08:38:57;;;;;;;5.53;2.00;;;23.60;99.90;;;;;;4953727;28;20227;-61
2022/07/13 08:41:23;;;;;;;8.02;2.50;;;23.50;99.90;;;;;;4954467;28;20212;-62
2022/07/13 08:43:49;;;;;;;10.95;2.47;;;23.50;99.90;;;;;;4954126;28;20212;-62
2022/07/13 08:46:15;;;;;;;7.28;2.53;;;23.50;99.90;;;;;;4954261;28;20176;-61
2022/07/13 08:48:43;;;;;;;4.45;2.20;;;23.50;99.90;;;;;;4954394;29;20176;-61
2022/07/13 08:51:10;;;;;;;3.88;2.05;;;23.40;99.90;;;;;;4954606;28;20180;-61
2022/07/13 08:53:35;;;;;;;6.00;2.50;;;23.40;99.90;;;;;;4953936;29;20184;-61
2022/07/13 08:56:01;;;;;;;8.63;2.50;;;23.40;99.90;;;;;;4954061;29;20196;-62
2022/07/13 08:58:27;;;;;;;8.88;2.10;;;23.50;99.90;;;;;;4953998;28;20184;-61
2022/07/13 09:00:53;;;;;;;3.95;2.35;;;23.50;99.90;;;;;;4953590;28;20207;-62
2022/07/13 09:03:19;;;;;;;5.30;2.00;;;23.50;99.90;;;;;;4953848;28;20173;-61
2022/07/13 09:05:45;;;;;;;4.07;2.20;;;23.70;99.90;;;;;;4953780;28;20184;-61
2022/07/13 09:08:12;;;;;;;6.13;2.33;;;23.50;99.90;;;;;;4953863;28;20184;-62
2022/07/13 09:10:59;;;;;;;4.38;2.20;;;23.40;99.90;;;;;;4953152;29;20211;-61
2022/07/13 09:13:41;;;;;;;5.55;2.30;;;23.50;99.90;;;;;;4953735;28;20297;-62
2022/07/13 09:16:20;;;;;;;3.42;2.08;;;23.80;99.90;;;;;;4953137;28;20648;-61
2022/07/13 09:18:59;;;;;;;4.28;2.10;;;23.90;99.90;;;;;;4953324;28;20180;-62
2022/07/13 09:21:25;;;;;;;7.55;2.22;;;23.90;99.90;;;;;;4953293;28;20222;-61
2022/07/13 09:23:57;;;;;;;4.50;2.17;;;24.00;99.90;;;;;;4953211;28;20687;-61
2022/07/13 09:26:30;;;;;;;7.38;2.58;;;24.00;99.90;;;;;;4953332;28;20176;-62
2022/07/13 09:29:00;;;;;;;6.30;2.50;;;23.90;99.90;;;;;;4953343;28;20184;-62
2022/07/13 09:31:26;;;;;;;4.00;2.28;;;24.10;99.90;;;;;;4952966;28;20187;-61
2022/07/13 09:33:54;;;;;;;14.20;3.22;;;24.20;99.90;;;;;;4952054;29;20267;-62
2022/07/13 09:36:24;;;;;;;7.47;2.28;;;24.30;99.90;;;;;;4953292;28;20177;-62
2022/07/13 09:38:51;;;;;;;3.72;1.95;;;24.20;99.90;;;;;;4953599;29;20187;-62
2022/07/13 09:41:26;;;;;;;4.22;1.95;;;24.20;99.90;;;;;;4953431;29;20545;-62
2022/07/13 09:46:58;;;;;;;4.32;2.17;;;24.60;99.90;;;;;;4953752;28;20682;-62
2022/07/13 09:49:42;;;;;;;8.82;2.30;;;24.80;99.90;;;;;;4953329;28;20341;-61
2022/07/13 09:52:10;;;;;;;4.30;1.70;;;25.20;99.90;;;;;;4953643;28;20172;-61
2022/07/13 09:54:39;;;;;;;5.25;1.80;;;24.80;99.90;;;;;;4953415;28;20259;-62
2022/07/13 09:57:08;;;;;;;6.18;1.90;;;25.40;99.90;;;;;;4952830;29;20172;-61
2022/07/13 09:59:39;;;;;;;4.97;1.75;;;25.70;99.90;;;;;;4951421;29;20191;-62
2022/07/13 10:02:05;;;;;;;3.10;1.67;;;25.90;99.90;;;;;;4950709;28;20204;-61
2022/07/13 10:04:41;;;;;;;6.13;1.90;;;25.80;99.90;;;;;;4938822;29;20796;-62
2022/07/13 10:07:08;;;;;;;4.55;1.63;;;25.90;99.90;;;;;;4951548;28;20636;-62
2022/07/13 10:09:38;;;;;;;3.15;1.55;;;25.70;99.90;;;;;;4939946;28;20184;-61
2022/07/13 10:12:10;;;;;;;4.72;1.85;;;25.90;99.90;;;;;;4932284;29;20243;-61
2022/07/13 10:14:37;;;;;;;3.22;1.63;;;26.50;99.90;;;;;;4933808;29;20229;-61
2022/07/13 10:17:10;;;;;;;5.75;1.52;;;27.40;99.90;;;;;;4933881;29;20177;-61
2022/07/13 10:19:44;;;;;;;5.28;1.63;;;27.50;99.90;;;;;;4933946;29;20174;-61
2022/07/13 10:22:19;;;;;;;2.67;1.52;;;27.00;99.90;;;;;;4948311;29;20208;-61
2022/07/13 10:24:57;;;;;;;2.78;1.50;;;27.10;99.90;;;;;;4953049;28;20247;-61
2022/07/13 10:27:31;;;;;;;4.78;1.88;;;27.10;99.90;;;;;;4951731;29;20183;-60
2022/07/13 10:29:59;;;;;;;4.55;1.35;;;27.30;99.90;;;;;;4952956;29;20171;-61
2022/07/13 10:32:42;;;;;;;4.03;1.50;;;27.40;99.90;;;;;;4953117;28;20522;-60
2022/07/13 10:35:13;;;;;;;3.22;1.60;;;27.50;99.90;;;;;;4956656;28;20192;-61
2022/07/13 10:38:00;;;;;;;6.63;1.73;;;27.30;99.90;;;;;;4956900;28;20175;-62
2022/07/13 10:40:33;;;;;;;4.78;1.75;;;26.40;99.90;;;;;;4956794;28;20199;-61
2022/07/13 10:43:05;;;;;;;4.43;1.52;;;26.40;99.90;;;;;;4956885;28;20212;-61
2022/07/13 10:45:44;;;;;;;3.22;1.60;;;25.60;99.90;;;;;;4956593;28;20192;-61
2022/07/13 10:48:34;;;;;;;2.42;1.40;;;25.50;99.90;;;;;;4956498;28;20255;-61
2022/07/13 10:51:02;;;;;;;6.35;1.52;;;25.80;99.90;;;;;;4955650;28;20275;-60
2022/07/13 10:53:43;;;;;;;13.10;1.83;;;25.70;99.90;;;;;;4955989;29;20239;-61
2022/07/13 10:56:19;;;;;;;2.60;1.80;;;26.20;99.90;;;;;;4955933;29;20188;-60
2022/07/13 10:58:46;;;;;;;8.00;1.60;;;26.50;99.90;;;;;;4954352;28;20192;-61
2022/07/13 11:01:32;;;;;;;3.88;1.52;;;27.00;99.90;;;;;;4956479;28;20197;-61
2022/07/13 11:03:58;;;;;;;4.95;1.50;;;27.50;99.90;;;;;;4956586;28;20173;-61
2022/07/13 11:06:24;;;;;;;2.15;1.55;;;27.50;99.90;;;;;;4955760;28;20177;-60
2022/07/13 11:09:10;;;;;;;3.78;1.63;;;27.30;99.90;;;;;;4955764;28;20186;-60
2022/07/13 11:11:47;;;;;;;4.93;1.70;;;27.00;99.90;;;;;;4955320;28;20305;-61
2022/07/13 11:14:35;;;;;;;4.18;1.58;;;26.70;99.90;;;;;;4936266;29;20730;-61
2022/07/13 11:17:14;;;;;;;6.88;1.30;;;26.40;99.90;;;;;;4917882;29;20266;-60
2022/07/13 11:19:52;;;;;;;1.67;1.33;;;26.70;99.90;;;;;;4925821;29;20180;-60
2022/07/13 11:22:20;;;;;;;3.13;1.60;;;27.10;99.90;;;;;;4936473;29;20580;-60
2022/07/13 11:27:45;;;;;;;3.15;1.27;;;28.20;99.90;;;;;;4936954;29;20584;-61
2022/07/13 11:30:14;;;;;;;2.47;1.38;;;28.80;99.90;;;;;;4936862;29;20180;-61
2022/07/13 11:32:41;;;;;;;5.45;1.70;;;29.00;99.90;;;;;;4936740;29;20177;-61
2022/07/13 11:35:07;;;;;;;4.38;1.48;;;29.20;99.90;;;;;;4936697;29;20184;-61
2022/07/13 11:37:34;;;;;;;2.38;1.33;;;29.90;99.90;;;;;;4936814;29;20176;-61
2022/07/13 11:40:00;;;;;;;3.05;1.55;;;29.70;99.90;;;;;;4936609;29;20268;-61
2022/07/13 11:42:26;;;;;;;5.97;1.45;;;29.90;99.90;;;;;;4936567;29;20363;-62
2022/07/13 11:44:52;;;;;;;4.95;1.20;;;29.90;99.90;;;;;;4936219;29;20166;-62
2022/07/13 11:47:19;;;;;;;7.28;1.50;;;30.70;99.90;;;;;;4936614;29;20219;-62
2022/07/13 11:49:53;;;;;;;5.85;1.45;;;31.20;99.90;;;;;;4936565;29;20181;-62
2022/07/13 11:52:24;;;;;;;5.15;1.60;;;31.00;99.90;;;;;;4936403;29;20647;-62
2022/07/13 11:55:05;;;;;;;6.25;1.88;;;30.10;99.90;;;;;;4936487;29;20221;-61
2022/07/13 11:57:32;;;;;;;3.88;1.50;;;29.90;99.90;;;;;;4936693;29;20237;-62
2022/07/13 12:00:04;;;;;;;2.22;1.30;;;29.80;99.90;;;;;;4936600;29;20235;-62
2022/07/13 12:02:30;;;;;;;6.05;1.50;;;29.80;99.90;;;;;;4936379;29;20221;-62
2022/07/13 12:04:56;;;;;;;6.25;1.65;;;29.20;99.90;;;;;;4936506;29;20582;-64
2022/07/13 12:07:24;;;;;;;5.07;1.70;;;28.90;99.90;;;;;;4936365;29;20173;-62
2022/07/13 12:09:56;;;;;;;3.13;1.40;;;28.70;99.90;;;;;;4936265;29;20640;-63
2022/07/13 12:12:27;;;;;;;5.00;1.40;;;29.50;99.90;;;;;;4940249;29;20232;-61
2022/07/13 12:14:54;;;;;;;3.05;1.50;;;29.90;99.90;;;;;;4954695;28;20180;-62
2022/07/13 12:17:21;;;;;;;4.90;1.48;;;30.50;99.90;;;;;;4954604;28;20208;-61
2022/07/13 12:19:48;;;;;;;6.30;1.33;;;31.40;99.90;;;;;;4953470;28;20263;-61
2022/07/13 12:22:14;;;;;;;12.43;1.60;;;32.30;99.90;;;;;;4953940;28;20349;-62
2022/07/13 12:24:45;;;;;;;2.72;1.40;;;32.40;99.90;;;;;;4954242;28;20176;-61
2022/07/13 12:27:28;;;;;;;3.65;1.27;;;32.60;99.90;;;;;;4954647;28;20191;-62
2022/07/13 12:30:15;;;;;;;2.83;1.27;;;32.10;99.90;;;;;;4954449;28;20184;-61
2022/07/13 12:33:03;;;;;;;4.60;1.40;;;32.00;99.90;;;;;;4954097;28;20172;-61
2022/07/13 12:35:32;;;;;;;3.85;1.50;;;32.00;99.90;;;;;;4954363;28;20707;-61
2022/07/13 12:37:58;;;;;;;2.90;1.80;;;31.70;99.90;;;;;;4953699;28;20177;-61
2022/07/13 12:40:49;;;;;;;2.97;1.35;;;32.20;99.90;;;;;;4954166;28;20199;-61
2022/07/13 12:43:25;;;;;;;5.07;1.30;;;31.80;99.90;;;;;;4950978;29;20197;-61
2022/07/13 12:45:56;;;;;;;5.90;1.20;;;30.70;99.90;;;;;;4954459;29;20192;-62
2022/07/13 12:48:27;;;;;;;2.17;1.20;;;30.80;99.90;;;;;;4954454;28;20212;-61
2022/07/13 12:51:12;;;;;;;6.10;1.30;;;30.80;99.90;;;;;;4953626;28;20192;-61
2022/07/13 12:53:56;;;;;;;5.68;1.25;;;31.30;99.90;;;;;;4954440;29;20172;-62
2022/07/13 12:56:44;;;;;;;1.20;0.88;;;31.90;99.90;;;;;;4953663;28;20547;-61
2022/07/13 12:59:11;;;;;;;1.98;1.13;;;32.60;99.90;;;;;;4953802;28;20181;-61
2022/07/13 13:01:38;;;;;;;3.45;1.35;;;32.70;99.90;;;;;;4951559;28;20220;-60
2022/07/13 13:04:07;;;;;;;1.75;1.10;;;31.40;99.90;;;;;;4953897;28;20172;-61